Portada
METAR-TAF:

METAR-TAF

Aeroports :

Dinwiddie County Airport

Petersburg, Virgínia, Estats Units d'Amèrica

latitud: 37-11N, longitud: 077-31W, altitud: 59 m

Observació

L'informe es va fer fa 13 minuts, a les 17:15 UTC
Vent 3 kt del Sud/Sud-Oest
Temperatura 5°C
Humitat 75%
Pressió 1001 hPa
Visibilitat: 16.1 km
Núvols disperses a una alçada de 1400 ft
Cel ennuvolat a una alçada de 4000 ft
Cel cobert a una alçada de 7000 ft

METAR: KPTB 161715Z AUTO 20003KT 10SM SCT014 BKN040 OVC070 05/01 A2957 RMK AO2 T00480009

Hora: 12:28 (17:28 UTC)


TAF: manca

Observacions i pronòstics meteorològics de més de 4000 aeroports (METAR i TAF).

Les estacions disponibles són els punts grocs i vermells al mapa.

Posi el ratolí al punt desitjat per veure el nom de l'estació.

Feu clic per veure les observacions i els pronòstics meteorològics.

Per canviar el mapa: feu clic els botons verds amb una creu de color negre per apropar; al botó verd amb un guió per allunyar la imatge; o en les fletxes verdes per a mapes adjacents.


METAR-TAF: